Time;durP1;ratioP1;P1;durP2;ratioP2;P2;SDS_P1;SDS_P2;PMS_P1;PMS_P2;Temp;Humidity;BMP_temperature;BMP_pressure;BME280_temperature;BME280_humidity;BME280_pressure;Samples;Min_cycle;Max_cycle;Signal;HPM_P1;HPM_P2
2024/02/07 00:01:01;;;;;;;2.70;1.48;;;;;;;;;;5910251;28;20044;-81
2024/02/07 00:03:52;;;;;;;1.10;1.00;;;;;;;;;;5926039;28;20044;-79
2024/02/07 00:06:42;;;;;;;0.65;0.65;;;;;;;;;;5908795;28;20044;-80
2024/02/07 00:09:33;;;;;;;0.98;0.68;;;;;;;;;;5908516;28;20048;-80
2024/02/07 00:12:24;;;;;;;0.85;0.85;;;;;;;;;;5909948;28;20548;-79
2024/02/07 00:15:15;;;;;;;2.05;0.75;;;;;;;;;;5908518;28;20071;-82
2024/02/07 00:18:06;;;;;;;0.77;0.77;;;;;;;;;;5925067;28;20057;-81
2024/02/07 00:20:57;;;;;;;1.08;0.68;;;;;;;;;;5910390;28;20120;-81
2024/02/07 00:23:47;;;;;;;0.77;0.77;;;;;;;;;;5908161;28;20044;-81
2024/02/07 00:26:38;;;;;;;2.00;0.98;;;;;;;;;;5891709;28;20045;-80
2024/02/07 00:29:29;;;;;;;1.60;0.63;;;;;;;;;;5908417;28;20048;-80
2024/02/07 00:32:20;;;;;;;0.82;0.52;;;;;;;;;;5908137;28;20064;-81
2024/02/07 00:35:11;;;;;;;0.40;0.38;;;;;;;;;;5925006;28;20504;-83
2024/02/07 00:38:02;;;;;;;4.47;0.93;;;;;;;;;;5909441;28;20075;-78
2024/02/07 00:40:53;;;;;;;0.95;0.70;;;;;;;;;;5909653;28;20044;-79
2024/02/07 00:43:44;;;;;;;0.82;0.60;;;;;;;;;;5907708;28;20186;-82
2024/02/07 00:46:35;;;;;;;0.77;0.60;;;;;;;;;;5907960;28;20414;-80
2024/02/07 00:49:26;;;;;;;0.55;0.55;;;;;;;;;;5908112;28;20044;-79
2024/02/07 00:52:16;;;;;;;3.45;1.20;;;;;;;;;;5924510;28;20131;-79
2024/02/07 00:55:09;;;;;;;7.25;1.75;;;;;;;;;;5907709;28;20384;-79
2024/02/07 00:58:00;;;;;;;4.03;1.02;;;;;;;;;;5909390;28;20490;-81
2024/02/07 01:00:54;;;;;;;0.70;0.70;;;;;;;;;;5924409;28;20041;-80
2024/02/07 01:03:45;;;;;;;1.25;1.13;;;;;;;;;;5895525;28;20045;-81
2024/02/07 01:06:38;;;;;;;1.65;0.98;;;;;;;;;;5885841;28;20437;-80
2024/02/07 01:09:29;;;;;;;2.38;0.95;;;;;;;;;;5868764;28;20114;-83
2024/02/07 01:12:20;;;;;;;0.47;0.47;;;;;;;;;;5884533;28;20110;-80
2024/02/07 01:15:11;;;;;;;0.88;0.85;;;;;;;;;;5884073;28;20498;-79
2024/02/07 01:18:02;;;;;;;1.27;0.90;;;;;;;;;;5883985;28;20442;-79
2024/02/07 01:20:52;;;;;;;0.50;0.50;;;;;;;;;;5885962;28;20395;-80
2024/02/07 01:23:45;;;;;;;1.60;0.90;;;;;;;;;;5900597;28;20410;-81
2024/02/07 01:26:36;;;;;;;0.80;0.55;;;;;;;;;;5884176;28;20048;-80
2024/02/07 01:29:26;;;;;;;0.60;0.60;;;;;;;;;;5885307;28;20044;-81
2024/02/07 01:32:17;;;;;;;1.17;0.90;;;;;;;;;;5884581;28;20057;-80
2024/02/07 01:35:12;;;;;;;7.32;2.17;;;;;;;;;;5884038;28;20454;-79
2024/02/07 01:38:07;;;;;;;1.75;1.00;;;;;;;;;;5884618;28;20041;-84
2024/02/07 01:40:58;;;;;;;0.85;0.77;;;;;;;;;;5885471;28;20053;-81
2024/02/07 01:43:49;;;;;;;2.40;1.00;;;;;;;;;;5884214;28;20556;-80
2024/02/07 01:46:40;;;;;;;1.77;1.10;;;;;;;;;;5900523;28;20044;-80
2024/02/07 01:49:31;;;;;;;0.90;0.88;;;;;;;;;;5884134;28;20383;-80
2024/02/07 01:52:24;;;;;;;2.30;0.82;;;;;;;;;;5886509;28;20041;-80
2024/02/07 01:55:17;;;;;;;0.77;0.75;;;;;;;;;;5888112;28;20048;-79
2024/02/07 01:58:08;;;;;;;0.45;0.43;;;;;;;;;;5888646;28;20045;-80
2024/02/07 02:01:00;;;;;;;1.15;0.80;;;;;;;;;;5888896;28;20057;-81
2024/02/07 02:03:51;;;;;;;0.75;0.70;;;;;;;;;;5888542;28;20117;-80
2024/02/07 02:06:42;;;;;;;0.57;0.50;;;;;;;;;;5871769;28;20430;-80
2024/02/07 02:09:33;;;;;;;3.30;0.70;;;;;;;;;;5904746;28;20060;-79
2024/02/07 02:12:23;;;;;;;1.10;0.60;;;;;;;;;;5888214;28;20045;-80
2024/02/07 02:15:14;;;;;;;0.73;0.73;;;;;;;;;;5888106;28;20045;-79
2024/02/07 02:18:05;;;;;;;0.82;0.57;;;;;;;;;;5871433;28;20052;-80
2024/02/07 02:21:00;;;;;;;8.05;1.65;;;;;;;;;;5888510;28;20127;-80
2024/02/07 02:24:11;;;;;;;0.25;0.25;;;;;;;;;;5888477;28;20048;-82
2024/02/07 02:27:21;;;;;;;2.08;1.02;;;;;;;;;;5889067;28;20053;-81
2024/02/07 02:30:19;;;;;;;1.27;0.98;;;;;;;;;;5888976;28;20044;-79
2024/02/07 02:33:12;;;;;;;;;;;;;;;;;;5872818;28;20041;-83
2024/02/07 02:36:04;;;;;;;0.82;0.77;;;;;;;;;;5889017;28;19928;-78
2024/02/07 02:38:55;;;;;;;1.17;0.82;;;;;;;;;;5888142;28;20414;-80
2024/02/07 02:41:46;;;;;;;0.70;0.70;;;;;;;;;;5887347;28;20406;-81
2024/02/07 02:44:37;;;;;;;10.07;1.85;;;;;;;;;;5888731;28;20156;-80
2024/02/07 02:47:28;;;;;;;1.25;1.05;;;;;;;;;;5888812;28;20139;-79
2024/02/07 02:50:21;;;;;;;4.95;1.35;;;;;;;;;;5903952;28;20095;-82
2024/02/07 02:53:12;;;;;;;0.45;0.45;;;;;;;;;;5887398;28;20045;-80
2024/02/07 02:56:05;;;;;;;2.75;1.58;;;;;;;;;;5888536;28;20053;-83
2024/02/07 02:58:56;;;;;;;1.75;0.63;;;;;;;;;;5888824;28;20052;-80
2024/02/07 03:01:47;;;;;;;8.25;0.95;;;;;;;;;;5886994;28;20044;-80
2024/02/07 03:04:41;;;;;;;1.48;0.68;;;;;;;;;;5888616;28;20126;-80
2024/02/07 03:07:43;;;;;;;0.88;0.65;;;;;;;;;;5871178;28;20049;-80
2024/02/07 03:10:34;;;;;;;1.55;0.77;;;;;;;;;;5886782;28;20045;-80
2024/02/07 03:13:25;;;;;;;0.43;0.43;;;;;;;;;;5887113;28;20037;-80
2024/02/07 03:16:17;;;;;;;0.70;0.65;;;;;;;;;;5903020;28;20056;-81
2024/02/07 03:19:08;;;;;;;1.67;1.00;;;;;;;;;;5886760;28;20045;-80
2024/02/07 03:21:59;;;;;;;0.73;0.73;;;;;;;;;;5888365;28;20049;-79
2024/02/07 03:24:55;;;;;;;1.10;1.00;;;;;;;;;;5886625;28;20044;-81
2024/02/07 03:27:48;;;;;;;0.70;0.65;;;;;;;;;;5902710;28;20063;-81
2024/02/07 03:30:40;;;;;;;11.95;0.77;;;;;;;;;;5869720;28;20037;-80
2024/02/07 03:33:31;;;;;;;0.17;0.17;;;;;;;;;;5886652;28;20049;-80
2024/02/07 03:36:23;;;;;;;1.77;0.73;;;;;;;;;;5886224;28;20045;-79
2024/02/07 03:39:14;;;;;;;1.08;0.70;;;;;;;;;;5887370;28;20051;-80
2024/02/07 03:42:06;;;;;;;4.57;0.63;;;;;;;;;;5869668;28;20481;-80
2024/02/07 03:45:03;;;;;;;2.40;1.63;;;;;;;;;;5887850;28;20049;-81
2024/02/07 03:47:55;;;;;;;1.52;0.70;;;;;;;;;;5870185;28;20654;-81
2024/02/07 03:50:48;;;;;;;1.10;0.88;;;;;;;;;;5885893;28;20044;-84
2024/02/07 03:53:39;;;;;;;0.98;0.90;;;;;;;;;;5885887;28;20066;-79
2024/02/07 03:56:31;;;;;;;0.35;0.35;;;;;;;;;;5902405;28;20064;-82
2024/02/07 03:59:22;;;;;;;1.20;0.65;;;;;;;;;;5885693;28;20045;-80
2024/02/07 04:02:23;;;;;;;3.72;1.75;;;;;;;;;;5886005;28;20064;-83
2024/02/07 04:05:16;;;;;;;2.42;1.00;;;;;;;;;;5901352;28;20049;-80
2024/02/07 04:08:07;;;;;;;6.90;0.63;;;;;;;;;;5885722;28;20041;-81
2024/02/07 04:11:00;;;;;;;0.50;0.50;;;;;;;;;;5887403;28;20127;-80
2024/02/07 05:16:54;;;;;;;5.95;0.65;;;;;;;;;;5886081;28;20056;-80
2024/02/07 05:19:48;;;;;;;2.40;1.23;;;;;;;;;;5884396;28;20037;-80
2024/02/07 05:22:39;;;;;;;1.35;1.15;;;;;;;;;;5884200;28;20037;-80
2024/02/07 05:25:32;;;;;;;0.93;0.47;;;;;;;;;;5884439;28;20139;-84
2024/02/07 05:28:23;;;;;;;1.42;0.80;;;;;;;;;;5889787;28;20048;-79
2024/02/07 05:31:14;;;;;;;0.65;0.57;;;;;;;;;;5888653;28;20371;-79
2024/02/07 05:34:04;;;;;;;0.93;0.60;;;;;;;;;;5889094;28;20410;-81
2024/02/07 05:36:55;;;;;;;0.40;0.40;;;;;;;;;;5889394;28;20039;-80
2024/02/07 05:39:46;;;;;;;0.63;0.63;;;;;;;;;;5888878;28;20056;-79
2024/02/07 05:42:37;;;;;;;0.85;0.50;;;;;;;;;;5888534;28;20128;-79
2024/02/07 05:45:29;;;;;;;0.35;0.35;;;;;;;;;;5888757;28;20049;-81
2024/02/07 05:48:21;;;;;;;1.02;0.52;;;;;;;;;;5888782;28;20053;-80
2024/02/07 05:51:22;;;;;;;10.52;1.20;;;;;;;;;;5888439;28;20135;-80
2024/02/07 05:54:13;;;;;;;1.50;0.73;;;;;;;;;;5889971;28;20537;-81
2024/02/07 05:57:04;;;;;;;0.57;0.30;;;;;;;;;;5888465;28;20045;-83
2024/02/07 05:59:54;;;;;;;0.20;0.20;;;;;;;;;;5888656;28;20396;-85
2024/02/07 06:02:45;;;;;;;1.08;1.05;;;;;;;;;;5888178;28;20045;-81
2024/02/07 06:05:36;;;;;;;1.02;0.93;;;;;;;;;;5888166;28;20041;-79
2024/02/07 06:08:27;;;;;;;0.32;0.25;;;;;;;;;;5871546;28;20045;-78
2024/02/07 06:11:18;;;;;;;0.57;0.57;;;;;;;;;;5887904;28;20053;-84
2024/02/07 06:14:10;;;;;;;0.50;0.50;;;;;;;;;;5888005;28;20127;-78
2024/02/07 06:17:01;;;;;;;1.13;0.73;;;;;;;;;;5888016;28;20045;-78
2024/02/07 06:19:52;;;;;;;0.30;0.30;;;;;;;;;;5889638;28;20053;-79
2024/02/07 06:22:47;;;;;;;0.32;0.32;;;;;;;;;;5904326;28;20122;-79
2024/02/07 06:25:38;;;;;;;0.60;0.60;;;;;;;;;;5887635;28;20049;-80
2024/02/07 06:28:29;;;;;;;1.55;0.95;;;;;;;;;;5887867;28;20049;-80
2024/02/07 06:31:20;;;;;;;1.88;0.98;;;;;;;;;;5888712;28;20327;-81
2024/02/07 06:34:11;;;;;;;0.60;0.60;;;;;;;;;;5887669;28;20053;-79
2024/02/07 06:37:02;;;;;;;5.70;2.00;;;;;;;;;;5903628;28;20046;-81
2024/02/07 06:39:53;;;;;;;1.13;0.35;;;;;;;;;;5888107;28;20045;-81
2024/02/07 06:42:44;;;;;;;0.65;0.65;;;;;;;;;;5888689;28;20044;-80
2024/02/07 06:45:35;;;;;;;0.80;0.80;;;;;;;;;;5888495;28;20127;-81
2024/02/07 06:48:26;;;;;;;0.73;0.65;;;;;;;;;;5887662;28;20049;-80
2024/02/07 06:51:17;;;;;;;0.50;0.50;;;;;;;;;;5888209;28;20147;-80
2024/02/07 06:54:07;;;;;;;0.95;0.65;;;;;;;;;;5870871;28;20151;-80
2024/02/07 06:56:58;;;;;;;4.78;2.15;;;;;;;;;;5887618;28;20052;-80
2024/02/07 06:59:49;;;;;;;1.25;0.98;;;;;;;;;;5887259;28;20098;-80
2024/02/07 07:02:40;;;;;;;1.33;1.23;;;;;;;;;;5886744;28;20052;-79
2024/02/07 07:05:31;;;;;;;1.23;1.05;;;;;;;;;;5887086;28;20045;-80
2024/02/07 07:08:21;;;;;;;0.88;0.88;;;;;;;;;;5888198;28;20176;-80
2024/02/07 07:11:12;;;;;;;1.02;0.93;;;;;;;;;;5870351;28;20053;-79
2024/02/07 07:14:03;;;;;;;0.77;0.77;;;;;;;;;;5888083;28;20045;-83
2024/02/07 07:16:54;;;;;;;0.77;0.77;;;;;;;;;;5903700;28;20052;-79
2024/02/07 07:19:45;;;;;;;1.33;0.93;;;;;;;;;;5887828;28;20044;-80
2024/02/07 07:22:35;;;;;;;1.23;1.15;;;;;;;;;;5886639;28;20430;-80
2024/02/07 07:25:26;;;;;;;1.13;0.85;;;;;;;;;;5870243;28;20510;-80
2024/02/07 07:28:17;;;;;;;2.55;1.15;;;;;;;;;;5886605;28;20057;-80
2024/02/07 07:31:08;;;;;;;1.45;1.35;;;;;;;;;;5869722;28;20044;-80
2024/02/07 07:33:59;;;;;;;8.20;0.88;;;;;;;;;;5888228;28;20052;-82
2024/02/07 07:36:53;;;;;;;1.55;0.95;;;;;;;;;;5886442;28;20040;-82
2024/02/07 07:39:43;;;;;;;0.63;0.63;;;;;;;;;;5887442;28;20044;-81
2024/02/07 07:42:34;;;;;;;0.55;0.55;;;;;;;;;;5886117;28;20052;-81
2024/02/07 07:45:25;;;;;;;1.20;0.85;;;;;;;;;;5887643;28;20064;-82
2024/02/07 07:48:17;;;;;;;0.73;0.73;;;;;;;;;;5887330;28;20053;-81
2024/02/07 07:51:19;;;;;;;0.73;0.70;;;;;;;;;;5885501;28;20506;-81
2024/02/07 07:54:10;;;;;;;2.13;1.92;;;;;;;;;;5886062;28;20091;-84
2024/02/07 07:57:01;;;;;;;0.70;0.70;;;;;;;;;;5887181;28;20045;-80
2024/02/07 07:59:52;;;;;;;1.13;0.88;;;;;;;;;;5886172;28;20060;-82
2024/02/07 08:02:42;;;;;;;1.08;0.68;;;;;;;;;;5887103;28;20037;-82
2024/02/07 08:05:34;;;;;;;0.68;0.68;;;;;;;;;;5886989;28;20045;-81
2024/02/07 08:08:26;;;;;;;0.60;0.60;;;;;;;;;;5886997;28;20052;-81
2024/02/07 08:11:17;;;;;;;0.80;0.55;;;;;;;;;;5886961;28;20053;-82
2024/02/07 08:14:07;;;;;;;1.00;0.52;;;;;;;;;;5885768;28;20045;-80
2024/02/07 08:16:58;;;;;;;1.98;1.27;;;;;;;;;;5869840;28;20063;-80
2024/02/07 08:19:49;;;;;;;0.80;0.80;;;;;;;;;;5885400;28;20043;-81
2024/02/07 08:22:40;;;;;;;1.10;0.85;;;;;;;;;;5886703;28;20198;-81
2024/02/07 08:25:31;;;;;;;1.65;1.35;;;;;;;;;;5885381;28;20143;-80
2024/02/07 08:28:22;;;;;;;1.40;0.80;;;;;;;;;;5868948;28;20117;-81
2024/02/07 08:31:13;;;;;;;2.85;1.67;;;;;;;;;;5901627;28;20059;-80
2024/02/07 08:34:04;;;;;;;1.42;1.33;;;;;;;;;;5885379;28;20201;-80
2024/02/07 08:36:55;;;;;;;7.35;2.65;;;;;;;;;;5885277;28;20056;-80
2024/02/07 08:39:47;;;;;;;1.75;1.33;;;;;;;;;;5885000;28;20048;-81
2024/02/07 08:42:38;;;;;;;1.92;0.65;;;;;;;;;;5868437;28;20045;-81
2024/02/07 08:45:28;;;;;;;1.55;1.45;;;;;;;;;;5884781;28;20406;-80
2024/02/07 08:48:20;;;;;;;0.95;0.88;;;;;;;;;;5886188;28;20062;-81
2024/02/07 08:51:11;;;;;;;0.73;0.73;;;;;;;;;;5884874;28;20080;-81
2024/02/07 08:54:03;;;;;;;4.22;0.88;;;;;;;;;;5884944;28;20418;-80
2024/02/07 08:56:53;;;;;;;1.02;0.88;;;;;;;;;;5886649;28;20049;-81
2024/02/07 08:59:47;;;;;;;1.92;1.00;;;;;;;;;;5885836;28;20355;-83
2024/02/07 09:02:38;;;;;;;3.72;1.67;;;;;;;;;;5885821;28;20086;-81
2024/02/07 09:05:29;;;;;;;1.38;0.88;;;;;;;;;;5885990;28;20075;-81
2024/02/07 09:08:20;;;;;;;0.88;0.88;;;;;;;;;;5868219;28;20059;-81
2024/02/07 09:11:11;;;;;;;0.50;0.50;;;;;;;;;;5885672;28;20055;-79
2024/02/07 09:14:01;;;;;;;1.70;1.10;;;;;;;;;;5884594;28;20052;-81
2024/02/07 09:16:52;;;;;;;1.88;1.02;;;;;;;;;;5885144;28;20410;-81
2024/02/07 09:19:43;;;;;;;0.88;0.57;;;;;;;;;;5884503;28;20061;-81
2024/02/07 09:22:34;;;;;;;3.30;1.35;;;;;;;;;;5884368;28;20048;-82
2024/02/07 09:25:25;;;;;;;3.05;0.93;;;;;;;;;;5884259;28;20111;-81
2024/02/07 09:28:16;;;;;;;0.70;0.70;;;;;;;;;;5884523;28;20107;-81
2024/02/07 09:31:08;;;;;;;7.78;4.63;;;;;;;;;;5883972;28;20037;-81
2024/02/07 09:33:59;;;;;;;9.45;3.75;;;;;;;;;;5885020;28;20045;-82
2024/02/07 09:36:51;;;;;;;2.55;2.30;;;;;;;;;;5884204;28;20400;-81
2024/02/07 09:39:41;;;;;;;5.20;1.63;;;;;;;;;;5884354;28;20041;-83
2024/02/07 09:42:37;;;;;;;1.30;1.20;;;;;;;;;;5884354;28;20529;-81
2024/02/07 09:45:36;;;;;;;4.00;1.88;;;;;;;;;;5885811;28;20175;-81
2024/02/07 09:48:27;;;;;;;2.28;2.08;;;;;;;;;;5884277;28;20436;-81
2024/02/07 09:51:19;;;;;;;1.67;1.42;;;;;;;;;;5884216;28;20045;-82
2024/02/07 09:54:12;;;;;;;1.50;1.30;;;;;;;;;;5884408;28;20052;-81
2024/02/07 09:57:04;;;;;;;1.52;1.30;;;;;;;;;;5884216;28;20056;-81
2024/02/07 09:59:55;;;;;;;13.23;2.85;;;;;;;;;;5884477;28;20060;-82
2024/02/07 10:02:49;;;;;;;6.93;5.93;;;;;;;;;;5885605;28;20045;-80
2024/02/07 10:05:50;;;;;;;4.97;2.97;;;;;;;;;;5883903;28;20450;-82
2024/02/07 10:08:48;;;;;;;5.57;3.65;;;;;;;;;;5867745;28;20065;-80
2024/02/07 10:11:40;;;;;;;7.90;5.53;;;;;;;;;;5884180;28;20159;-82
2024/02/07 10:14:31;;;;;;;10.32;3.08;;;;;;;;;;5888477;28;20041;-81
2024/02/07 10:17:22;;;;;;;16.08;3.67;;;;;;;;;;5888131;28;20411;-81
2024/02/07 10:20:13;;;;;;;4.32;3.45;;;;;;;;;;5888061;28;20053;-81
2024/02/07 10:23:07;;;;;;;8.98;4.68;;;;;;;;;;5904772;28;20112;-80
2024/02/07 10:26:00;;;;;;;13.57;4.22;;;;;;;;;;5888665;28;20510;-82
2024/02/07 10:29:02;;;;;;;5.28;3.45;;;;;;;;;;5872146;28;20052;-80
2024/02/07 10:31:54;;;;;;;7.90;2.50;;;;;;;;;;5888111;28;20183;-81
2024/02/07 10:34:53;;;;;;;4.53;3.78;;;;;;;;;;5871308;28;20179;-81
2024/02/07 10:37:47;;;;;;;4.53;2.67;;;;;;;;;;5887957;28;20123;-81
2024/02/07 10:40:40;;;;;;;2.35;1.80;;;;;;;;;;5871693;28;20052;-82
2024/02/07 10:43:36;;;;;;;7.95;2.95;;;;;;;;;;5888051;28;20045;-82
2024/02/07 10:46:27;;;;;;;4.32;2.85;;;;;;;;;;5887792;28;20519;-81
2024/02/07 10:49:18;;;;;;;3.70;3.30;;;;;;;;;;5887513;28;20052;-81
2024/02/07 10:52:11;;;;;;;3.72;2.80;;;;;;;;;;5888684;28;20071;-81
2024/02/07 10:55:02;;;;;;;10.05;2.30;;;;;;;;;;5887554;28;20415;-81
2024/02/07 10:57:57;;;;;;;6.35;2.25;;;;;;;;;;5887650;28;20056;-81
2024/02/07 11:00:52;;;;;;;1.63;1.48;;;;;;;;;;5886896;28;20044;-80
2024/02/07 11:03:43;;;;;;;2.45;1.58;;;;;;;;;;5887440;28;20136;-81
2024/02/07 11:06:35;;;;;;;2.15;1.27;;;;;;;;;;5887136;28;20132;-80
2024/02/07 11:09:26;;;;;;;5.45;3.85;;;;;;;;;;5870958;28;20513;-80
2024/02/07 11:12:17;;;;;;;3.92;2.40;;;;;;;;;;5888244;28;20045;-83
2024/02/07 11:15:09;;;;;;;2.75;1.58;;;;;;;;;;5888381;28;20049;-81
2024/02/07 11:18:01;;;;;;;3.28;2.58;;;;;;;;;;5887198;28;20494;-79
2024/02/07 11:20:53;;;;;;;5.22;3.08;;;;;;;;;;5888523;28;20045;-81
2024/02/07 11:23:48;;;;;;;8.05;2.05;;;;;;;;;;5869419;28;20168;-81
2024/02/07 11:26:39;;;;;;;4.97;1.38;;;;;;;;;;5886767;28;20445;-81
2024/02/07 11:29:32;;;;;;;1.70;1.42;;;;;;;;;;5886641;28;20041;-83
2024/02/07 11:32:22;;;;;;;2.83;2.15;;;;;;;;;;5886655;28;20049;-84
2024/02/07 11:35:14;;;;;;;7.00;2.70;;;;;;;;;;5886644;28;20052;-82
2024/02/07 11:38:08;;;;;;;4.10;2.33;;;;;;;;;;5870078;28;20045;-82
2024/02/07 11:41:05;;;;;;;3.03;2.10;;;;;;;;;;5870951;28;20048;-81
2024/02/07 11:44:07;;;;;;;1.25;1.15;;;;;;;;;;5886713;28;20044;-84
2024/02/07 11:46:58;;;;;;;6.85;2.42;;;;;;;;;;5886556;28;20041;-81
2024/02/07 11:50:02;;;;;;;3.15;1.55;;;;;;;;;;5886588;28;20045;-82
2024/02/07 11:52:54;;;;;;;3.90;1.85;;;;;;;;;;5886646;28;20127;-83
2024/02/07 11:55:47;;;;;;;8.93;2.25;;;;;;;;;;5886077;28;20226;-82
2024/02/07 11:58:40;;;;;;;4.85;2.50;;;;;;;;;;5886230;28;20127;-82
2024/02/07 12:01:31;;;;;;;2.70;1.58;;;;;;;;;;5885953;28;20055;-82
2024/02/07 12:04:23;;;;;;;12.90;2.60;;;;;;;;;;5885801;28;20044;-82
2024/02/07 12:07:14;;;;;;;3.35;2.67;;;;;;;;;;5885722;28;20053;-84
2024/02/07 12:10:07;;;;;;;4.82;1.73;;;;;;;;;;5869287;28;20463;-82
2024/02/07 12:12:58;;;;;;;4.15;2.00;;;;;;;;;;5886361;28;20045;-82
2024/02/07 12:15:51;;;;;;;3.05;2.58;;;;;;;;;;5887177;28;20048;-82
2024/02/07 12:18:43;;;;;;;4.55;2.60;;;;;;;;;;5885609;28;20059;-81
2024/02/07 12:21:35;;;;;;;2.42;1.65;;;;;;;;;;5886826;28;20048;-81
2024/02/07 12:24:26;;;;;;;2.70;2.00;;;;;;;;;;5885642;28;20391;-82
2024/02/07 12:27:17;;;;;;;2.13;1.17;;;;;;;;;;5885406;28;20041;-82
2024/02/07 12:30:08;;;;;;;1.30;1.02;;;;;;;;;;5885077;28;20048;-83
2024/02/07 12:32:59;;;;;;;8.02;5.05;;;;;;;;;;5887099;28;20082;-83
2024/02/07 12:35:57;;;;;;;8.70;5.00;;;;;;;;;;5884991;28;20087;-83
2024/02/07 12:38:48;;;;;;;2.80;1.90;;;;;;;;;;5885156;28;20391;-80
2024/02/07 12:41:39;;;;;;;2.20;1.70;;;;;;;;;;5886238;28;20391;-81
2024/02/07 12:44:33;;;;;;;4.57;3.28;;;;;;;;;;5885258;28;20048;-81
2024/02/07 12:47:24;;;;;;;9.05;2.50;;;;;;;;;;5885208;28;20131;-81
2024/02/07 12:50:15;;;;;;;1.88;1.77;;;;;;;;;;5884309;28;20045;-81
2024/02/07 12:53:07;;;;;;;3.00;1.77;;;;;;;;;;5884534;28;20418;-81
2024/02/07 12:55:57;;;;;;;1.67;1.38;;;;;;;;;;5886539;28;20499;-81
2024/02/07 12:58:48;;;;;;;4.03;2.22;;;;;;;;;;5886160;28;20048;-81
2024/02/07 13:01:39;;;;;;;1.15;0.98;;;;;;;;;;5884286;28;20040;-81
2024/02/07 13:04:31;;;;;;;2.67;1.50;;;;;;;;;;5868188;28;20041;-82
2024/02/07 13:07:22;;;;;;;6.05;1.23;;;;;;;;;;5884628;28;20059;-82
2024/02/07 13:10:17;;;;;;;2.47;2.08;;;;;;;;;;5884942;28;20138;-81
2024/02/07 13:13:07;;;;;;;0.55;0.55;;;;;;;;;;5884483;28;20063;-81
2024/02/07 13:15:58;;;;;;;2.80;1.92;;;;;;;;;;5885000;28;20057;-81
2024/02/07 13:18:51;;;;;;;3.70;2.67;;;;;;;;;;5885670;28;20139;-81
2024/02/07 13:21:42;;;;;;;4.32;1.50;;;;;;;;;;5884245;28;20037;-81
2024/02/07 13:24:33;;;;;;;1.25;1.02;;;;;;;;;;5884031;28;20049;-81
2024/02/07 13:27:24;;;;;;;0.82;0.82;;;;;;;;;;5884543;28;20041;-80
2024/02/07 13:30:16;;;;;;;1.00;0.90;;;;;;;;;;5900641;28;20041;-81
2024/02/07 13:33:07;;;;;;;2.00;1.23;;;;;;;;;;5884789;28;20045;-82
2024/02/07 13:35:58;;;;;;;0.60;0.60;;;;;;;;;;5886204;28;20057;-82
2024/02/07 13:38:49;;;;;;;0.70;0.70;;;;;;;;;;5884606;28;20037;-80
2024/02/07 13:41:40;;;;;;;0.50;0.50;;;;;;;;;;5883708;28;20053;-81
2024/02/07 13:44:32;;;;;;;0.68;0.68;;;;;;;;;;5884260;28;20195;-82
2024/02/07 13:47:23;;;;;;;0.55;0.55;;;;;;;;;;5886284;28;20045;-82
2024/02/07 13:50:14;;;;;;;1.23;1.13;;;;;;;;;;5889009;28;20144;-83
2024/02/07 13:53:08;;;;;;;0.68;0.68;;;;;;;;;;5889134;28;20128;-83
2024/02/07 13:55:59;;;;;;;0.77;0.77;;;;;;;;;;5889331;28;20053;-83
2024/02/07 13:58:50;;;;;;;1.15;1.08;;;;;;;;;;5890090;28;20501;-83
2024/02/07 14:01:41;;;;;;;0.75;0.75;;;;;;;;;;5889626;28;20170;-82
2024/02/07 14:04:32;;;;;;;0.82;0.80;;;;;;;;;;5888499;28;20037;-83
2024/02/07 14:07:25;;;;;;;1.10;0.95;;;;;;;;;;5888774;28;20049;-83
2024/02/07 14:10:16;;;;;;;1.30;0.85;;;;;;;;;;5888463;28;20049;-83
2024/02/07 14:13:08;;;;;;;0.40;0.40;;;;;;;;;;5889695;28;20118;-82
2024/02/07 14:15:59;;;;;;;0.60;0.60;;;;;;;;;;5888936;28;20513;-83
2024/02/07 14:18:50;;;;;;;1.67;1.25;;;;;;;;;;5872058;28;20052;-84
2024/02/07 14:21:41;;;;;;;3.50;1.13;;;;;;;;;;5871746;28;20041;-83
2024/02/07 14:24:33;;;;;;;2.28;2.05;;;;;;;;;;5871667;28;20056;-83
2024/02/07 14:27:24;;;;;;;2.15;1.40;;;;;;;;;;5904624;28;20052;-84
2024/02/07 14:30:16;;;;;;;2.03;1.85;;;;;;;;;;5887840;28;20049;-84
2024/02/07 14:33:07;;;;;;;3.78;2.20;;;;;;;;;;5889295;28;20048;-85
2024/02/07 14:35:59;;;;;;;2.30;0.68;;;;;;;;;;5871893;28;20049;-84
2024/02/07 14:38:50;;;;;;;0.63;0.63;;;;;;;;;;5871313;28;20045;-84
2024/02/07 14:41:40;;;;;;;2.10;1.27;;;;;;;;;;5887616;28;20076;-85
2024/02/07 14:44:31;;;;;;;1.35;1.23;;;;;;;;;;5888072;28;20052;-85
2024/02/07 14:47:22;;;;;;;0.93;0.55;;;;;;;;;;5903984;28;20045;-85
2024/02/07 14:50:13;;;;;;;1.48;1.30;;;;;;;;;;5887543;28;20153;-85
2024/02/07 14:53:05;;;;;;;0.60;0.60;;;;;;;;;;5888969;28;20045;-85
2024/02/07 14:55:59;;;;;;;2.30;1.90;;;;;;;;;;5871998;28;20047;-85
2024/02/07 14:58:50;;;;;;;2.17;1.98;;;;;;;;;;5871435;28;20044;-86
2024/02/07 15:01:41;;;;;;;2.50;2.30;;;;;;;;;;5888601;28;20044;-85
2024/02/07 15:04:34;;;;;;;4.28;2.92;;;;;;;;;;5887500;28;20082;-84
2024/02/07 15:07:25;;;;;;;5.95;2.78;;;;;;;;;;5887823;28;20048;-85
2024/02/07 15:10:16;;;;;;;5.32;2.42;;;;;;;;;;5903962;28;20052;-85
2024/02/07 15:13:07;;;;;;;2.63;1.65;;;;;;;;;;5887512;28;20052;-86
2024/02/07 15:15:58;;;;;;;3.78;1.30;;;;;;;;;;5889278;28;20056;-85
2024/02/07 15:18:48;;;;;;;2.60;1.95;;;;;;;;;;5887247;28;20041;-86
2024/02/07 15:21:39;;;;;;;3.05;1.42;;;;;;;;;;5886881;28;20044;-86
2024/02/07 15:24:32;;;;;;;1.67;1.58;;;;;;;;;;5903249;28;20051;-85
2024/02/07 15:27:23;;;;;;;2.55;1.58;;;;;;;;;;5888300;28;20049;-86
2024/02/07 15:30:14;;;;;;;2.85;2.65;;;;;;;;;;5887833;28;20060;-86
2024/02/07 15:33:05;;;;;;;4.68;2.47;;;;;;;;;;5886919;28;20052;-86
2024/02/07 15:35:56;;;;;;;1.63;1.50;;;;;;;;;;5903842;28;20443;-86
2024/02/07 15:38:47;;;;;;;4.03;1.80;;;;;;;;;;5886882;28;20507;-86
2024/02/07 15:41:38;;;;;;;0.82;0.82;;;;;;;;;;5887536;28;20102;-86
2024/02/07 15:44:29;;;;;;;3.00;1.02;;;;;;;;;;5886682;28;20041;-86
2024/02/07 15:47:21;;;;;;;1.58;1.02;;;;;;;;;;5887903;28;20067;-86
2024/02/07 15:50:13;;;;;;;1.42;0.90;;;;;;;;;;5886638;28;20049;-86
2024/02/07 15:53:04;;;;;;;0.70;0.50;;;;;;;;;;5887766;28;20049;-86
2024/02/07 15:55:55;;;;;;;0.50;0.50;;;;;;;;;;5903339;28;20048;-86
2024/02/07 15:58:47;;;;;;;1.63;0.32;;;;;;;;;;5886194;28;20041;-87
2024/02/07 16:01:37;;;;;;;1.23;0.70;;;;;;;;;;5887187;28;20074;-87
2024/02/07 16:04:42;;;;;;;0.60;0.60;;;;;;;;;;5886210;28;20037;-87
2024/02/07 16:07:33;;;;;;;0.55;0.55;;;;;;;;;;5887316;28;20120;-87
2024/02/07 16:10:24;;;;;;;0.73;0.73;;;;;;;;;;5902041;28;20441;-87
2024/02/07 16:13:14;;;;;;;1.08;1.05;;;;;;;;;;5885435;28;20073;-87
2024/02/07 16:16:05;;;;;;;2.40;1.35;;;;;;;;;;5885521;28;20041;-86
2024/02/07 16:18:57;;;;;;;1.20;1.10;;;;;;;;;;5886006;28;20040;-87
2024/02/07 16:21:49;;;;;;;0.60;0.60;;;;;;;;;;5885290;28;20208;-87
2024/02/07 16:24:40;;;;;;;2.22;1.45;;;;;;;;;;5885143;28;20055;-87
2024/02/07 16:27:31;;;;;;;1.45;1.27;;;;;;;;;;5901788;28;20037;-86
2024/02/07 16:30:22;;;;;;;8.50;4.13;;;;;;;;;;5884961;28;20048;-87
2024/02/07 16:33:17;;;;;;;9.30;6.97;;;;;;;;;;5885292;28;20061;-87
2024/02/07 16:36:08;;;;;;;4.80;3.30;;;;;;;;;;5885344;28;20063;-86
2024/02/07 16:38:59;;;;;;;7.45;3.05;;;;;;;;;;5887097;28;20190;-86
2024/02/07 16:41:50;;;;;;;3.70;2.80;;;;;;;;;;5885285;28;20045;-87
2024/02/07 16:44:41;;;;;;;6.32;4.15;;;;;;;;;;5901366;28;20045;-87
2024/02/07 16:47:32;;;;;;;7.45;4.05;;;;;;;;;;5886384;28;20053;-87
2024/02/07 16:50:23;;;;;;;7.43;4.90;;;;;;;;;;5869059;28;20051;-87
2024/02/07 16:53:13;;;;;;;1.33;1.08;;;;;;;;;;5884957;28;20533;-86
2024/02/07 16:56:05;;;;;;;10.98;4.72;;;;;;;;;;5901450;28;20433;-85
2024/02/07 16:58:57;;;;;;;6.70;4.70;;;;;;;;;;5885261;28;20041;-87
2024/02/07 17:01:49;;;;;;;9.60;2.78;;;;;;;;;;5900933;28;20037;-87
2024/02/07 17:04:40;;;;;;;7.40;3.53;;;;;;;;;;5884699;28;20494;-87
2024/02/07 17:07:31;;;;;;;4.20;2.75;;;;;;;;;;5884799;28;20052;-86
2024/02/07 17:10:22;;;;;;;6.32;2.72;;;;;;;;;;5884892;28;20048;-87
2024/02/07 17:13:16;;;;;;;11.05;5.30;;;;;;;;;;5884699;28;20426;-87
2024/02/07 17:16:07;;;;;;;10.07;6.03;;;;;;;;;;5885659;28;20118;-86
2024/02/07 17:18:59;;;;;;;12.52;8.52;;;;;;;;;;5886106;28;20055;-87
2024/02/07 17:21:49;;;;;;;14.18;7.80;;;;;;;;;;5884514;28;20044;-87
2024/02/07 17:24:40;;;;;;;10.55;5.72;;;;;;;;;;5885455;28;20045;-87
2024/02/07 17:27:34;;;;;;;10.30;5.55;;;;;;;;;;5884571;28;20044;-87
2024/02/07 17:30:27;;;;;;;10.48;6.78;;;;;;;;;;5885810;28;20045;-87
2024/02/07 17:33:27;;;;;;;5.32;3.72;;;;;;;;;;5885650;28;20041;-86
2024/02/07 17:36:18;;;;;;;2.00;1.80;;;;;;;;;;5885589;28;20520;-86
2024/02/07 17:39:08;;;;;;;12.93;3.95;;;;;;;;;;5885714;28;20051;-86
2024/02/07 17:41:59;;;;;;;4.07;3.67;;;;;;;;;;5868089;28;20044;-86
2024/02/07 17:44:50;;;;;;;11.98;3.72;;;;;;;;;;5884433;28;20056;-86
2024/02/07 17:47:41;;;;;;;4.32;2.75;;;;;;;;;;5885844;28;20068;-86
2024/02/07 17:50:33;;;;;;;4.63;2.28;;;;;;;;;;5900860;28;20087;-86
2024/02/07 17:53:25;;;;;;;7.35;4.18;;;;;;;;;;5885600;28;20045;-86
2024/02/07 17:56:16;;;;;;;10.18;5.90;;;;;;;;;;5884051;28;20053;-86
2024/02/07 17:59:07;;;;;;;8.02;4.15;;;;;;;;;;5900440;28;20045;-85
2024/02/07 18:01:58;;;;;;;13.18;5.65;;;;;;;;;;5885508;28;20128;-86
2024/02/07 18:04:48;;;;;;;10.40;5.75;;;;;;;;;;5883885;28;20470;-85
2024/02/07 18:07:40;;;;;;;11.45;6.45;;;;;;;;;;5883714;28;20525;-86
2024/02/07 18:10:31;;;;;;;11.18;5.97;;;;;;;;;;5885226;28;20037;-85
2024/02/07 18:13:23;;;;;;;7.20;4.30;;;;;;;;;;5884997;28;20072;-85